NOAA/GLERL Met Station at Muskegon, MI

Previous 5 days (top of hour only)
See slso Previous 3 Hours (2 minute increments)
Jump down to Data
Switch to [English][Metric]
Zoom: Click and drag, Pan: shift-click and drag, Unzoom: double-click, Unzoom All





Zoom: Click and drag, Pan: shift-click and drag, Unzoom: double-click, Unzoom All

Note: Speed = mean wind during 2-minute period at top of hour,
Gust = max wind during 2-minute period at top of hour,
Peak = max wind during entire hour.
• See also 5-day windrose plot

NOAA/GLERL Met Station at Muskegon, MI

Previous 5 days (top of hour only)
See slso Previous 3 Hours (2 minute increments)
Jump up to Graphs
Switch to [English][Metric]
                  Wind  Wind  Wind   Air   Dew   Rel     Sta   PAR
                   Spd   Gst   Dir  Temp    Pt   Hum    Pres uE/m2/
YYYY-MM-DD   EDT   kts   kts   deg     F     F     %   in Hg   sec
2016-04-30 16:00  12.1  14.2   116  53.6  35.0  48.9   29.42   526
2016-04-30 15:00  13.2  16.3   111  54.5  32.6  43.0   29.44   646
2016-04-30 14:00  14.0  17.9   109  54.0  33.0  44.5   29.45   967
2016-04-30 13:00  11.5  14.8   127  53.6  32.8  44.9   29.49  1174
2016-04-30 12:00  10.9  15.4   102  51.6  35.1  52.9   29.50  1183
2016-04-30 11:00  10.5  14.8   113  49.5  35.9  59.2   29.51   904
2016-04-30 10:00   4.7   6.6    98  47.3  38.1  70.1   29.51   973
2016-04-30 09:00   8.0   9.9    92  44.4  37.4  76.1   29.52   585
2016-04-30 08:00   6.6   9.1   101  42.6  37.1  80.7   29.53   332
2016-04-30 07:00   7.4   9.3   107  41.5  38.1  87.3   29.53   119
2016-04-30 06:00   6.6   8.4    97  41.9  38.6  87.9   29.52     2
2016-04-30 05:00   5.6   6.6    84  41.5  37.9  86.7   29.51     2
2016-04-30 04:00   6.2   7.4    94  41.4  37.9  87.3   29.52     2
2016-04-30 03:00   4.7   5.4    94  42.1  39.3  89.6   29.53     2
2016-04-30 02:00   4.7   5.4    95  41.7  36.0  80.0   29.52     2
2016-04-30 01:00   5.4   6.2   104  42.6  37.4  81.7   29.53     2
2016-04-30 00:00   5.1   5.4    83  42.6  34.3  72.2   29.54     2
2016-04-29 23:00   4.9   5.4    91  43.0  33.5  68.9   29.54     2
2016-04-29 22:00   7.2   8.0    29  44.1  30.8  59.2   29.54     2
2016-04-29 21:00   8.7  10.1   357  43.5  36.9  77.3   29.54     6
2016-04-29 20:00  13.2  14.8   348  43.9  36.7  75.7   29.53   481
2016-04-29 19:00  11.9  13.8   335  44.6  38.1  77.7   29.52   635
2016-04-29 18:00  13.6  14.4   340  44.1  38.3  80.0   29.51   716
2016-04-29 17:00  14.6  15.9   352  45.3  37.5  73.8   29.48  2105
2016-04-29 16:00   1.0   4.3   298  50.4  39.8  66.7   29.50  1001
2016-04-29 15:00  10.3  12.2    72  48.7  37.1  63.8   29.49  2225
2016-04-29 14:00   7.2   9.5   103  47.7  36.7  65.3   29.50  1608
2016-04-29 13:00   6.6   8.7    75  45.5  36.7  71.0   29.51   809
2016-04-29 12:00   8.6  10.3    98  44.1  36.5  74.6   29.49  1114
2016-04-29 11:00  10.1  12.1    76  41.5  36.3  81.3   29.48   444
2016-04-29 10:00   7.2   9.5    92  41.0  36.0  82.3   29.48   370
2016-04-29 09:00   7.2  10.3    78  40.3  35.6  83.1   29.48   191
2016-04-29 08:00   6.0   8.6    68  40.1  35.9  84.7   29.47   133
2016-04-29 07:00   8.9  10.5    80  40.6  35.3  80.9   29.45     6
2016-04-29 06:00   6.2   7.8    77  41.0  34.7  77.9   29.44     2
2016-04-29 05:00   7.6   9.3    98  41.4  34.8  77.2   29.42     2
2016-04-29 04:00  10.3  13.6   104  41.2  34.3  76.2   29.41     2
2016-04-29 03:00  11.9  13.6    98  41.5  34.1  74.7   29.42     2
2016-04-29 02:00  10.7  14.4    98  41.5  35.9  80.2   29.42     2
2016-04-29 01:00  10.7  15.6    90  41.7  36.5  81.5   29.42     2
2016-04-29 00:00   9.9  14.0    98  41.9  36.6  81.1   29.42     2
2016-04-28 23:00  10.1  13.2    99  42.1  36.7  81.0   29.42     2
2016-04-28 22:00   9.7  13.4    97  42.3  37.0  81.5   29.42     2
2016-04-28 21:00   9.7  15.6    95  41.7  38.1  86.7   29.41     2
2016-04-28 20:00   8.6  14.0    99  42.3  38.8  87.3   29.40    45
2016-04-28 19:00  11.1  16.9   100  42.4  37.7  83.1   29.38    74
2016-04-28 18:00  11.9  16.3    94  42.6  36.5  78.7   29.36   290
2016-04-28 17:00  15.9  19.1    89  42.6  36.3  78.0   29.36   531
2016-04-28 16:00  14.2  19.8    93  41.9  37.0  82.5   29.36   579
2016-04-28 15:00  15.9  22.2    96  40.8  36.7  84.9   29.37   462
2016-04-28 14:00  11.1  17.1    87  39.9  37.1  89.4   29.37   790
2016-04-28 13:00  10.5  13.2   103  38.8  35.3  86.9   29.39   316
2016-04-28 12:00  13.0  17.1   126  38.3  34.8  87.1   29.37   307
2016-04-28 11:00  20.2  27.2   104  38.3  33.7  83.4   29.31   253
2016-04-28 10:00  20.0  26.0   111  38.1  32.3  79.4   29.32   143
2016-04-28 09:00  15.2  23.1   106  38.8  31.8  75.5   29.32   181
2016-04-28 08:00  16.3  23.7    98  38.3  29.4  70.0   29.33    54
2016-04-28 07:00  10.7  16.3    98  40.8  28.8  61.9   29.34     6
2016-04-28 06:00  15.4  18.9   103  43.5  24.8  47.3   29.30     2
2016-04-28 05:00  18.7  24.3    96  45.1  21.6  38.9   29.29     2
2016-04-28 04:00  15.7  20.0    91  47.3  27.7  46.1   29.29     2
2016-04-28 03:00  15.6  19.8   110  48.2  29.5  48.0   29.29     2
2016-04-28 02:00  11.7  17.5   113  50.4  28.6  42.6   29.30     2
2016-04-28 01:00  10.7  15.6   112  51.8  26.3  36.8   29.31     2
2016-04-28 00:00  10.7  13.4   116  52.2  31.8  45.5   29.31     2
2016-04-27 23:00   8.6  11.7   114  52.5  33.3  47.6   29.31     2
2016-04-27 22:00   8.9  12.1   107  53.2  32.1  44.2   29.29     2
2016-04-27 21:00  11.7  16.1    94  54.3  30.2  39.3   29.27     2
2016-04-27 20:00   9.3  14.8   107  55.8  33.6  42.7   29.30    49
2016-04-27 19:00  10.1  14.0   118  57.4  29.3  33.9   29.32   249
2016-04-27 18:00  10.1  13.0   116  58.8  31.1  34.5   29.32   709
2016-04-27 17:00  10.3  15.0   107  58.8  29.7  32.7   29.31  1498
2016-04-27 16:00  12.6  16.9   108  58.5  29.9  33.4   29.31  1682
2016-04-27 15:00  13.8  17.9   105  58.1  26.0  28.8   29.31  1738
2016-04-27 14:00  10.9  16.3   120  57.6  27.3  31.0   29.34  1962
2016-04-27 13:00   9.5  11.7    89  55.2  26.1  32.1   29.35  2423
2016-04-27 12:00  12.1  19.4    93  52.7  26.1  35.3   29.35  2185
2016-04-27 11:00  15.2  18.5    94  49.5  25.5  38.9   29.36  2027
2016-04-27 10:00  13.4  16.1    90  45.9  27.1  47.6   29.38  1955
2016-04-27 09:00   8.6  11.9    96  43.3  28.6  55.8   29.40  1704
2016-04-27 08:00   9.5  12.4   103  39.7  28.9  64.9   29.40  1236
2016-04-27 07:00   6.4   9.9    76  37.9  29.4  70.9   29.40   100
2016-04-27 06:00   8.0  11.5    96  39.2  28.6  65.5   29.40     2
2016-04-27 05:00   4.9   7.6    99  39.4  30.4  70.0   29.41     2
2016-04-27 04:00   5.8   7.6    66  39.2  33.5  79.8   29.41     2
2016-04-27 03:00   8.9  10.7    88  40.8  29.6  63.9   29.37     2
2016-04-27 02:00   7.6   8.7    64  41.2  33.7  74.3   29.37     2
2016-04-27 01:00   7.8  10.5    68  42.8  35.7  75.8   29.38     2
2016-04-27 00:00   9.9  12.6    86  43.9  35.4  71.7   29.39     2
2016-04-26 23:00  10.3  13.8    88  44.4  36.1  72.3   29.36     2
2016-04-26 22:00  11.3  15.9    98  46.2  37.0  69.8   29.34     2
2016-04-26 21:00   8.0  10.9    67  46.8  38.7  73.3   29.32     2
2016-04-26 20:00   8.2  11.7    64  47.3  38.7  71.8   29.32    37
2016-04-26 19:00   9.3  11.5    75  47.8  38.4  69.4   29.32   170
2016-04-26 18:00   9.3  12.1    75  47.8  39.0  71.1   29.32   365
2016-04-26 17:00   9.9  12.6    77  47.7  40.2  75.0   29.32   519
2016-04-26 16:00  10.1  12.1    61  47.8  40.9  76.6   29.32   745
2016-04-26 15:00   7.4  10.1    88  47.3  41.4  79.7   29.32   871
2016-04-26 14:00   7.6   9.5   103  47.3  41.8  81.0   29.31   652
2016-04-26 13:00   5.8   7.0    78  47.5  42.7  83.3   29.29   631
2016-04-26 12:00   5.8   7.0    56  47.8  44.1  86.6   29.25   507
2016-04-26 11:00   6.6   7.4    75  47.3  44.3  89.1   29.25   837
2016-04-26 10:00   5.2   7.0    50  46.9  45.1  93.3   29.23   231
2016-04-26 09:00   6.8   9.9    35  47.5  45.3  92.2   29.21   181
2016-04-26 08:00   6.4  10.5    55  47.5  46.8  97.3   29.18    73
2016-04-26 07:00   9.9  11.7   354  44.8  44.3  98.0   29.15    10
2016-04-26 06:00   4.3   4.9    19  48.6  48.0  98.0   29.12     2
2016-04-26 05:00   4.7   5.2    82  48.7  48.2  98.0   29.10     2
2016-04-26 04:00   6.2   7.0    47  50.0  49.4  97.6   29.07     2
2016-04-26 03:00   3.7   5.4   104  51.6  50.2  94.8   29.06     2
2016-04-26 02:00   7.2  10.3   106  52.2  50.8  95.2   29.04     2
2016-04-26 01:00   9.7  11.5   103  53.4  51.8  94.1   29.03     2
2016-04-26 00:00   9.9  12.2    97  54.3  52.2  92.6   29.02     2
2016-04-25 23:00   8.0   9.5   115  56.8  54.3  91.1   29.01     2
2016-04-25 22:00  10.3  13.8   138  60.6  57.6  89.7   29.00     2
2016-04-25 21:00   3.5   5.1   124  60.3  57.2  89.5   29.02     2
2016-04-25 20:00   8.4  10.5    98  60.6  59.3  95.2   29.01    20